Weather at Wittman Regional Airport

Public forecast

Using degrees Fahrenheit for public forecast. Weather courtesy of forecast.io.

Current aviation weather report (METAR) for Wittman Regional Airport

Retrieved 2022/08/19 12:53 UTC (54 minutes ago):

KOSH 191253Z 21006KT 10SM BKN085 20/16 A2990 RMK AO2 SLP113 T02000161

Aviation forecast (TAF) for Wittman Regional Airport

Forecast is more than 12 hours old.

Retrieved 2022/08/04 18:33 UTC (15 days ago):

TAF KOSH 041731Z 0418/0518 05008KT P6SM SCT045 FM050100 08004KT P6SM SKC FM051600 11005KT P6SM FEW045